sensor_id;sensor_type;location;lat;lon;timestamp;temperature;humidity
6252;DHT22;3159;52.414;9.784;2022-12-18T00:02:13;-4.60;99.90
6252;DHT22;3159;52.414;9.784;2022-12-18T00:04:40;-4.60;99.90
6252;DHT22;3159;52.414;9.784;2022-12-18T00:07:08;-4.70;99.90
6252;DHT22;3159;52.414;9.784;2022-12-18T00:09:35;-4.70;99.90
6252;DHT22;3159;52.414;9.784;2022-12-18T00:12:03;-4.60;99.90
6252;DHT22;3159;52.414;9.784;2022-12-18T00:14:29;-4.50;99.90
6252;DHT22;3159;52.414;9.784;2022-12-18T00:16:56;-4.40;99.90
6252;DHT22;3159;52.414;9.784;2022-12-18T00:19:26;-4.20;99.90
6252;DHT22;3159;52.414;9.784;2022-12-18T00:21:52;-4.10;99.90
6252;DHT22;3159;52.414;9.784;2022-12-18T00:24:21;-4.00;99.90
6252;DHT22;3159;52.414;9.784;2022-12-18T00:26:47;-4.00;99.90
6252;DHT22;3159;52.414;9.784;2022-12-18T00:29:14;-4.00;99.90
6252;DHT22;3159;52.414;9.784;2022-12-18T00:31:42;-4.00;99.90
6252;DHT22;3159;52.414;9.784;2022-12-18T00:34:10;-4.00;99.90
6252;DHT22;3159;52.414;9.784;2022-12-18T00:36:37;-4.00;99.90
6252;DHT22;3159;52.414;9.784;2022-12-18T00:39:04;-4.10;99.90
6252;DHT22;3159;52.414;9.784;2022-12-18T00:41:32;-4.10;99.90
6252;DHT22;3159;52.414;9.784;2022-12-18T00:44:18;-4.40;99.90
6252;DHT22;3159;52.414;9.784;2022-12-18T00:46:46;-4.50;99.90
6252;DHT22;3159;52.414;9.784;2022-12-18T00:49:14;-4.50;99.90
6252;DHT22;3159;52.414;9.784;2022-12-18T00:51:41;-4.60;99.90
6252;DHT22;3159;52.414;9.784;2022-12-18T00:54:08;-4.50;99.90
6252;DHT22;3159;52.414;9.784;2022-12-18T00:56:36;-4.60;99.90
6252;DHT22;3159;52.414;9.784;2022-12-18T00:59:04;-4.50;99.90
6252;DHT22;3159;52.414;9.784;2022-12-18T01:01:31;-4.50;99.90
6252;DHT22;3159;52.414;9.784;2022-12-18T01:04:00;-4.50;99.90
6252;DHT22;3159;52.414;9.784;2022-12-18T01:06:26;-4.50;99.90
6252;DHT22;3159;52.414;9.784;2022-12-18T01:08:53;-4.40;99.90
6252;DHT22;3159;52.414;9.784;2022-12-18T01:11:21;-4.50;99.90
6252;DHT22;3159;52.414;9.784;2022-12-18T01:13:51;-4.40;99.90
6252;DHT22;3159;52.414;9.784;2022-12-18T01:16:18;-4.40;99.90
6252;DHT22;3159;52.414;9.784;2022-12-18T01:18:45;-4.40;99.90
6252;DHT22;3159;52.414;9.784;2022-12-18T01:21:15;-4.30;99.90
6252;DHT22;3159;52.414;9.784;2022-12-18T01:23:42;-4.30;99.90
6252;DHT22;3159;52.414;9.784;2022-12-18T01:26:14;-4.20;99.90
6252;DHT22;3159;52.414;9.784;2022-12-18T01:28:42;-4.20;99.90
6252;DHT22;3159;52.414;9.784;2022-12-18T01:31:15;-4.30;99.90
6252;DHT22;3159;52.414;9.784;2022-12-18T01:33:42;-4.30;99.90
6252;DHT22;3159;52.414;9.784;2022-12-18T01:36:15;-4.20;99.90
6252;DHT22;3159;52.414;9.784;2022-12-18T01:38:43;-4.30;99.90
6252;DHT22;3159;52.414;9.784;2022-12-18T01:41:10;-4.40;99.90
6252;DHT22;3159;52.414;9.784;2022-12-18T01:43:45;-4.40;99.90
6252;DHT22;3159;52.414;9.784;2022-12-18T01:46:14;-4.30;99.90
6252;DHT22;3159;52.414;9.784;2022-12-18T01:48:41;-4.40;99.90
6252;DHT22;3159;52.414;9.784;2022-12-18T01:51:10;-4.40;99.90
6252;DHT22;3159;52.414;9.784;2022-12-18T01:53:39;-4.40;99.90
6252;DHT22;3159;52.414;9.784;2022-12-18T01:56:07;-4.40;99.90
6252;DHT22;3159;52.414;9.784;2022-12-18T01:58:40;-4.50;99.90
6252;DHT22;3159;52.414;9.784;2022-12-18T02:01:09;-4.50;99.90
6252;DHT22;3159;52.414;9.784;2022-12-18T02:03:41;-4.50;99.90
6252;DHT22;3159;52.414;9.784;2022-12-18T02:06:12;-4.40;99.90
6252;DHT22;3159;52.414;9.784;2022-12-18T02:08:43;-4.40;99.90
6252;DHT22;3159;52.414;9.784;2022-12-18T02:11:18;-4.30;99.90
6252;DHT22;3159;52.414;9.784;2022-12-18T02:13:56;-4.40;99.90
6252;DHT22;3159;52.414;9.784;2022-12-18T02:16:33;-4.50;99.90
6252;DHT22;3159;52.414;9.784;2022-12-18T02:19:08;-4.40;99.90
6252;DHT22;3159;52.414;9.784;2022-12-18T02:21:48;-4.30;99.90
6252;DHT22;3159;52.414;9.784;2022-12-18T02:24:24;-4.30;99.90
6252;DHT22;3159;52.414;9.784;2022-12-18T02:26:58;-4.40;99.90
6252;DHT22;3159;52.414;9.784;2022-12-18T02:29:29;-4.60;99.90
6252;DHT22;3159;52.414;9.784;2022-12-18T02:31:57;-4.60;99.90
6252;DHT22;3159;52.414;9.784;2022-12-18T02:34:30;-4.60;99.90
6252;DHT22;3159;52.414;9.784;2022-12-18T02:36:59;-4.60;99.90
6252;DHT22;3159;52.414;9.784;2022-12-18T02:39:28;-4.80;99.90
6252;DHT22;3159;52.414;9.784;2022-12-18T02:41:57;-4.80;99.90
6252;DHT22;3159;52.414;9.784;2022-12-18T02:44:25;-4.80;99.90
6252;DHT22;3159;52.414;9.784;2022-12-18T02:46:53;-4.90;99.90
6252;DHT22;3159;52.414;9.784;2022-12-18T02:49:26;-5.00;99.90
6252;DHT22;3159;52.414;9.784;2022-12-18T02:52:02;-5.00;99.90
6252;DHT22;3159;52.414;9.784;2022-12-18T02:54:50;-5.00;99.90
6252;DHT22;3159;52.414;9.784;2022-12-18T02:57:23;-5.00;99.90
6252;DHT22;3159;52.414;9.784;2022-12-18T02:59:56;-4.90;99.90
6252;DHT22;3159;52.414;9.784;2022-12-18T03:02:32;-5.00;99.90
6252;DHT22;3159;52.414;9.784;2022-12-18T03:05:04;-4.90;99.90
6252;DHT22;3159;52.414;9.784;2022-12-18T03:07:36;-5.00;99.90
6252;DHT22;3159;52.414;9.784;2022-12-18T03:10:07;-4.90;99.90
6252;DHT22;3159;52.414;9.784;2022-12-18T03:12:40;-4.80;99.90
6252;DHT22;3159;52.414;9.784;2022-12-18T03:15:12;-4.80;99.90
6252;DHT22;3159;52.414;9.784;2022-12-18T03:17:43;-4.80;99.90
6252;DHT22;3159;52.414;9.784;2022-12-18T03:20:15;-4.60;99.90
6252;DHT22;3159;52.414;9.784;2022-12-18T03:22:45;-4.60;99.90
6252;DHT22;3159;52.414;9.784;2022-12-18T03:25:14;-4.60;99.90
6252;DHT22;3159;52.414;9.784;2022-12-18T03:27:47;-4.50;99.90
6252;DHT22;3159;52.414;9.784;2022-12-18T03:30:16;-4.60;99.90
6252;DHT22;3159;52.414;9.784;2022-12-18T03:32:47;-4.50;99.90
6252;DHT22;3159;52.414;9.784;2022-12-18T03:35:18;-4.40;99.90
6252;DHT22;3159;52.414;9.784;2022-12-18T03:37:46;-4.50;99.90
6252;DHT22;3159;52.414;9.784;2022-12-18T03:40:13;-4.40;99.90
6252;DHT22;3159;52.414;9.784;2022-12-18T03:42:46;-4.30;99.90
6252;DHT22;3159;52.414;9.784;2022-12-18T03:45:20;-4.50;99.90
6252;DHT22;3159;52.414;9.784;2022-12-18T03:47:56;-4.50;99.90
6252;DHT22;3159;52.414;9.784;2022-12-18T03:50:31;-4.70;99.90
6252;DHT22;3159;52.414;9.784;2022-12-18T03:53:07;-4.80;99.90
6252;DHT22;3159;52.414;9.784;2022-12-18T03:55:36;-4.70;99.90
6252;DHT22;3159;52.414;9.784;2022-12-18T03:58:06;-4.80;99.90
6252;DHT22;3159;52.414;9.784;2022-12-18T04:00:34;-4.90;99.90
6252;DHT22;3159;52.414;9.784;2022-12-18T04:03:02;-4.80;99.90
6252;DHT22;3159;52.414;9.784;2022-12-18T04:05:33;-4.80;99.90
6252;DHT22;3159;52.414;9.784;2022-12-18T04:08:00;-4.60;99.90
6252;DHT22;3159;52.414;9.784;2022-12-18T04:10:28;-4.60;99.90
6252;DHT22;3159;52.414;9.784;2022-12-18T04:12:55;-4.70;99.90
6252;DHT22;3159;52.414;9.784;2022-12-18T04:15:24;-4.60;99.90
6252;DHT22;3159;52.414;9.784;2022-12-18T04:17:51;-4.60;99.90
6252;DHT22;3159;52.414;9.784;2022-12-18T04:20:18;-4.60;99.90
6252;DHT22;3159;52.414;9.784;2022-12-18T04:22:44;-4.70;99.90
6252;DHT22;3159;52.414;9.784;2022-12-18T04:25:11;-4.70;99.90
6252;DHT22;3159;52.414;9.784;2022-12-18T04:27:38;-4.60;99.90
6252;DHT22;3159;52.414;9.784;2022-12-18T04:30:06;-4.80;99.90
6252;DHT22;3159;52.414;9.784;2022-12-18T04:32:35;-5.00;99.90
6252;DHT22;3159;52.414;9.784;2022-12-18T04:35:03;-5.00;99.90
6252;DHT22;3159;52.414;9.784;2022-12-18T04:37:32;-4.90;99.90
6252;DHT22;3159;52.414;9.784;2022-12-18T04:39:59;-4.80;99.90
6252;DHT22;3159;52.414;9.784;2022-12-18T04:42:25;-4.90;99.90
6252;DHT22;3159;52.414;9.784;2022-12-18T04:44:52;-5.00;99.90
6252;DHT22;3159;52.414;9.784;2022-12-18T04:47:19;-4.90;99.90
6252;DHT22;3159;52.414;9.784;2022-12-18T04:49:47;-5.00;99.90
6252;DHT22;3159;52.414;9.784;2022-12-18T04:52:14;-5.00;99.90
6252;DHT22;3159;52.414;9.784;2022-12-18T04:54:40;-4.80;99.90
6252;DHT22;3159;52.414;9.784;2022-12-18T04:57:07;-4.80;99.90
6252;DHT22;3159;52.414;9.784;2022-12-18T04:59:34;-4.90;99.90
6252;DHT22;3159;52.414;9.784;2022-12-18T05:02:01;-5.00;99.90
6252;DHT22;3159;52.414;9.784;2022-12-18T05:04:27;-4.90;99.90
6252;DHT22;3159;52.414;9.784;2022-12-18T05:06:56;-4.80;99.90
6252;DHT22;3159;52.414;9.784;2022-12-18T05:09:23;-4.90;99.90
6252;DHT22;3159;52.414;9.784;2022-12-18T05:11:50;-4.90;99.90
6252;DHT22;3159;52.414;9.784;2022-12-18T05:14:16;-4.90;99.90
6252;DHT22;3159;52.414;9.784;2022-12-18T05:16:43;-5.00;99.90
6252;DHT22;3159;52.414;9.784;2022-12-18T05:19:10;-5.00;99.90
6252;DHT22;3159;52.414;9.784;2022-12-18T05:21:37;-5.10;99.90
6252;DHT22;3159;52.414;9.784;2022-12-18T05:24:05;-5.20;99.90
6252;DHT22;3159;52.414;9.784;2022-12-18T05:26:32;-5.20;99.90
6252;DHT22;3159;52.414;9.784;2022-12-18T05:28:59;-5.20;99.90
6252;DHT22;3159;52.414;9.784;2022-12-18T05:31:26;-5.30;99.90
6252;DHT22;3159;52.414;9.784;2022-12-18T05:33:53;-5.30;99.90
6252;DHT22;3159;52.414;9.784;2022-12-18T05:36:20;-5.50;99.90
6252;DHT22;3159;52.414;9.784;2022-12-18T05:38:47;-5.40;99.90
6252;DHT22;3159;52.414;9.784;2022-12-18T05:41:15;-5.40;99.90
6252;DHT22;3159;52.414;9.784;2022-12-18T05:43:42;-5.40;99.90
6252;DHT22;3159;52.414;9.784;2022-12-18T05:46:12;-5.20;99.90
6252;DHT22;3159;52.414;9.784;2022-12-18T05:48:39;-5.10;99.90
6252;DHT22;3159;52.414;9.784;2022-12-18T05:51:07;-5.10;99.90
6252;DHT22;3159;52.414;9.784;2022-12-18T05:53:35;-5.00;99.90
6252;DHT22;3159;52.414;9.784;2022-12-18T05:56:03;-5.10;99.90
6252;DHT22;3159;52.414;9.784;2022-12-18T05:58:33;-5.10;99.90
6252;DHT22;3159;52.414;9.784;2022-12-18T06:01:07;-5.10;99.90
6252;DHT22;3159;52.414;9.784;2022-12-18T06:03:34;-5.10;99.90
6252;DHT22;3159;52.414;9.784;2022-12-18T06:06:01;-5.20;99.90
6252;DHT22;3159;52.414;9.784;2022-12-18T06:08:28;-5.30;99.90
6252;DHT22;3159;52.414;9.784;2022-12-18T06:10:54;-5.40;99.90
6252;DHT22;3159;52.414;9.784;2022-12-18T06:13:22;-5.60;99.90
6252;DHT22;3159;52.414;9.784;2022-12-18T06:15:50;-5.60;99.90
6252;DHT22;3159;52.414;9.784;2022-12-18T06:18:17;-5.60;99.90
6252;DHT22;3159;52.414;9.784;2022-12-18T06:20:43;-5.50;99.90
6252;DHT22;3159;52.414;9.784;2022-12-18T06:23:10;-5.40;99.90
6252;DHT22;3159;52.414;9.784;2022-12-18T06:25:38;-5.40;99.90
6252;DHT22;3159;52.414;9.784;2022-12-18T06:28:05;-5.50;99.90
6252;DHT22;3159;52.414;9.784;2022-12-18T06:30:32;-5.40;99.90
6252;DHT22;3159;52.414;9.784;2022-12-18T06:33:00;-5.50;99.90
6252;DHT22;3159;52.414;9.784;2022-12-18T06:35:27;-5.60;99.90
6252;DHT22;3159;52.414;9.784;2022-12-18T06:37:54;-5.60;99.90
6252;DHT22;3159;52.414;9.784;2022-12-18T06:40:20;-5.80;99.90
6252;DHT22;3159;52.414;9.784;2022-12-18T06:42:47;-5.80;99.90
6252;DHT22;3159;52.414;9.784;2022-12-18T06:45:14;-5.80;99.90
6252;DHT22;3159;52.414;9.784;2022-12-18T06:47:41;-5.70;99.90
6252;DHT22;3159;52.414;9.784;2022-12-18T06:50:09;-5.70;99.90
6252;DHT22;3159;52.414;9.784;2022-12-18T06:52:36;-5.70;99.90
6252;DHT22;3159;52.414;9.784;2022-12-18T06:55:05;-5.60;99.90
6252;DHT22;3159;52.414;9.784;2022-12-18T06:57:35;-5.50;99.90
6252;DHT22;3159;52.414;9.784;2022-12-18T07:00:04;-5.50;99.90
6252;DHT22;3159;52.414;9.784;2022-12-18T07:02:31;-5.50;99.90
6252;DHT22;3159;52.414;9.784;2022-12-18T07:04:58;-5.50;99.90
6252;DHT22;3159;52.414;9.784;2022-12-18T07:07:26;-5.50;99.90
6252;DHT22;3159;52.414;9.784;2022-12-18T07:09:53;-5.50;99.90
6252;DHT22;3159;52.414;9.784;2022-12-18T07:12:20;-5.60;99.90
6252;DHT22;3159;52.414;9.784;2022-12-18T07:14:46;-5.50;99.90
6252;DHT22;3159;52.414;9.784;2022-12-18T07:17:13;-5.60;99.90
6252;DHT22;3159;52.414;9.784;2022-12-18T07:19:40;-5.60;99.90
6252;DHT22;3159;52.414;9.784;2022-12-18T07:22:07;-5.50;99.90
6252;DHT22;3159;52.414;9.784;2022-12-18T07:24:35;-5.40;99.90
6252;DHT22;3159;52.414;9.784;2022-12-18T07:27:02;-5.40;99.90
6252;DHT22;3159;52.414;9.784;2022-12-18T07:29:28;-5.40;99.90
6252;DHT22;3159;52.414;9.784;2022-12-18T07:31:56;-5.40;99.90
6252;DHT22;3159;52.414;9.784;2022-12-18T07:34:22;-5.50;99.90
6252;DHT22;3159;52.414;9.784;2022-12-18T07:36:49;-5.60;99.90
6252;DHT22;3159;52.414;9.784;2022-12-18T07:39:16;-5.70;99.90
6252;DHT22;3159;52.414;9.784;2022-12-18T07:41:44;-5.80;99.90
6252;DHT22;3159;52.414;9.784;2022-12-18T07:44:32;-5.90;99.90
6252;DHT22;3159;52.414;9.784;2022-12-18T07:46:58;-5.70;99.90
6252;DHT22;3159;52.414;9.784;2022-12-18T07:49:25;-5.70;99.90
6252;DHT22;3159;52.414;9.784;2022-12-18T07:51:54;-5.60;99.90
6252;DHT22;3159;52.414;9.784;2022-12-18T07:54:21;-5.50;99.90
6252;DHT22;3159;52.414;9.784;2022-12-18T07:56:49;-5.40;99.90
6252;DHT22;3159;52.414;9.784;2022-12-18T07:59:16;-5.30;99.90
6252;DHT22;3159;52.414;9.784;2022-12-18T08:01:44;-5.30;99.90
6252;DHT22;3159;52.414;9.784;2022-12-18T08:04:10;-5.30;99.90
6252;DHT22;3159;52.414;9.784;2022-12-18T08:06:37;-5.30;99.90
6252;DHT22;3159;52.414;9.784;2022-12-18T08:09:04;-5.30;99.90
6252;DHT22;3159;52.414;9.784;2022-12-18T08:11:32;-5.40;99.90
6252;DHT22;3159;52.414;9.784;2022-12-18T08:14:00;-5.50;99.90
6252;DHT22;3159;52.414;9.784;2022-12-18T08:16:27;-5.60;99.90
6252;DHT22;3159;52.414;9.784;2022-12-18T08:18:54;-5.80;99.90
6252;DHT22;3159;52.414;9.784;2022-12-18T08:21:23;-5.80;99.90
6252;DHT22;3159;52.414;9.784;2022-12-18T08:23:51;-5.80;99.90
6252;DHT22;3159;52.414;9.784;2022-12-18T08:26:18;-5.80;99.90
6252;DHT22;3159;52.414;9.784;2022-12-18T08:28:45;-5.70;99.90
6252;DHT22;3159;52.414;9.784;2022-12-18T08:31:13;-5.60;99.90
6252;DHT22;3159;52.414;9.784;2022-12-18T08:33:40;-5.50;99.90
6252;DHT22;3159;52.414;9.784;2022-12-18T08:36:08;-5.50;99.90
6252;DHT22;3159;52.414;9.784;2022-12-18T08:38:35;-5.40;99.90
6252;DHT22;3159;52.414;9.784;2022-12-18T08:41:04;-5.40;99.90
6252;DHT22;3159;52.414;9.784;2022-12-18T08:43:31;-5.30;99.90
6252;DHT22;3159;52.414;9.784;2022-12-18T08:46:17;-5.30;99.90
6252;DHT22;3159;52.414;9.784;2022-12-18T08:48:44;-5.10;99.90
6252;DHT22;3159;52.414;9.784;2022-12-18T08:51:11;-4.90;99.90
6252;DHT22;3159;52.414;9.784;2022-12-18T08:53:38;-4.50;99.90
6252;DHT22;3159;52.414;9.784;2022-12-18T08:56:05;-4.10;99.90
6252;DHT22;3159;52.414;9.784;2022-12-18T08:58:32;-4.10;99.90
6252;DHT22;3159;52.414;9.784;2022-12-18T09:01:00;-3.60;99.90
6252;DHT22;3159;52.414;9.784;2022-12-18T09:03:29;-3.60;99.90
6252;DHT22;3159;52.414;9.784;2022-12-18T09:05:56;-3.60;99.90
6252;DHT22;3159;52.414;9.784;2022-12-18T09:08:22;-2.90;99.90
6252;DHT22;3159;52.414;9.784;2022-12-18T09:10:50;-2.70;99.90
6252;DHT22;3159;52.414;9.784;2022-12-18T09:13:17;-2.50;99.90
6252;DHT22;3159;52.414;9.784;2022-12-18T09:15:46;-2.40;99.90
6252;DHT22;3159;52.414;9.784;2022-12-18T09:18:13;-2.50;99.90
6252;DHT22;3159;52.414;9.784;2022-12-18T09:20:42;-2.40;99.90
6252;DHT22;3159;52.414;9.784;2022-12-18T09:23:10;-2.80;99.90
6252;DHT22;3159;52.414;9.784;2022-12-18T09:25:38;-2.80;99.90
6252;DHT22;3159;52.414;9.784;2022-12-18T09:28:06;-2.50;99.90
6252;DHT22;3159;52.414;9.784;2022-12-18T09:30:37;-2.30;99.90
6252;DHT22;3159;52.414;9.784;2022-12-18T09:33:04;-2.40;99.90
6252;DHT22;3159;52.414;9.784;2022-12-18T09:35:31;-2.50;99.90
6252;DHT22;3159;52.414;9.784;2022-12-18T09:37:59;-2.20;99.90
6252;DHT22;3159;52.414;9.784;2022-12-18T09:40:31;-1.90;99.90
6252;DHT22;3159;52.414;9.784;2022-12-18T09:43:03;-1.80;99.90
6252;DHT22;3159;52.414;9.784;2022-12-18T09:45:38;-1.40;99.90
6252;DHT22;3159;52.414;9.784;2022-12-18T09:48:05;-1.40;99.90
6252;DHT22;3159;52.414;9.784;2022-12-18T09:50:35;-1.50;99.90
6252;DHT22;3159;52.414;9.784;2022-12-18T09:53:09;-1.30;99.90
6252;DHT22;3159;52.414;9.784;2022-12-18T09:55:42;-1.40;99.90
6252;DHT22;3159;52.414;9.784;2022-12-18T09:58:15;-1.10;99.90
6252;DHT22;3159;52.414;9.784;2022-12-18T10:00:43;-1.00;99.90
6252;DHT22;3159;52.414;9.784;2022-12-18T10:03:12;-0.90;99.90
6252;DHT22;3159;52.414;9.784;2022-12-18T10:05:48;-1.00;99.90
6252;DHT22;3159;52.414;9.784;2022-12-18T10:08:22;-1.40;99.90
6252;DHT22;3159;52.414;9.784;2022-12-18T10:10:52;-1.20;99.90
6252;DHT22;3159;52.414;9.784;2022-12-18T10:13:23;-1.00;99.90
6252;DHT22;3159;52.414;9.784;2022-12-18T10:16:04;-0.90;99.90
6252;DHT22;3159;52.414;9.784;2022-12-18T10:18:59;-1.10;99.90
6252;DHT22;3159;52.414;9.784;2022-12-18T10:21:33;-0.90;99.90
6252;DHT22;3159;52.414;9.784;2022-12-18T10:24:14;-0.90;99.90
6252;DHT22;3159;52.414;9.784;2022-12-18T10:26:52;-1.00;99.90
6252;DHT22;3159;52.414;9.784;2022-12-18T10:29:19;-0.90;99.90
6252;DHT22;3159;52.414;9.784;2022-12-18T10:31:46;-1.00;99.90
6252;DHT22;3159;52.414;9.784;2022-12-18T10:34:14;-1.30;99.90
6252;DHT22;3159;52.414;9.784;2022-12-18T10:36:42;-1.50;99.90
6252;DHT22;3159;52.414;9.784;2022-12-18T10:39:18;-1.40;99.90
6252;DHT22;3159;52.414;9.784;2022-12-18T10:41:45;-1.50;99.90
6252;DHT22;3159;52.414;9.784;2022-12-18T10:44:17;-1.40;99.90
6252;DHT22;3159;52.414;9.784;2022-12-18T10:46:45;-1.10;99.90
6252;DHT22;3159;52.414;9.784;2022-12-18T10:49:22;-1.20;99.90
6252;DHT22;3159;52.414;9.784;2022-12-18T10:51:50;-1.30;99.90
6252;DHT22;3159;52.414;9.784;2022-12-18T10:54:21;-1.20;99.90
6252;DHT22;3159;52.414;9.784;2022-12-18T10:56:49;-1.10;99.90
6252;DHT22;3159;52.414;9.784;2022-12-18T10:59:17;-1.30;99.90
6252;DHT22;3159;52.414;9.784;2022-12-18T11:01:50;-1.10;99.90
6252;DHT22;3159;52.414;9.784;2022-12-18T11:04:20;-1.30;99.90
6252;DHT22;3159;52.414;9.784;2022-12-18T11:06:59;-1.30;99.90
6252;DHT22;3159;52.414;9.784;2022-12-18T11:09:28;-1.40;99.90
6252;DHT22;3159;52.414;9.784;2022-12-18T11:11:59;-1.40;99.90
6252;DHT22;3159;52.414;9.784;2022-12-18T11:14:28;-1.30;99.90
6252;DHT22;3159;52.414;9.784;2022-12-18T11:16:56;-1.30;99.90
6252;DHT22;3159;52.414;9.784;2022-12-18T11:19:34;-1.40;99.90
6252;DHT22;3159;52.414;9.784;2022-12-18T11:22:16;-1.20;99.90
6252;DHT22;3159;52.414;9.784;2022-12-18T11:24:52;-1.20;99.90
6252;DHT22;3159;52.414;9.784;2022-12-18T11:27:20;-1.10;99.90
6252;DHT22;3159;52.414;9.784;2022-12-18T11:29:50;-1.00;99.90
6252;DHT22;3159;52.414;9.784;2022-12-18T11:32:27;-0.80;99.90
6252;DHT22;3159;52.414;9.784;2022-12-18T11:35:02;-0.70;99.90
6252;DHT22;3159;52.414;9.784;2022-12-18T11:37:30;-0.70;99.90
6252;DHT22;3159;52.414;9.784;2022-12-18T11:40:01;-0.80;99.90
6252;DHT22;3159;52.414;9.784;2022-12-18T11:42:34;-0.80;99.90
6252;DHT22;3159;52.414;9.784;2022-12-18T11:45:18;-0.70;99.90
6252;DHT22;3159;52.414;9.784;2022-12-18T11:47:52;-0.90;99.90
6252;DHT22;3159;52.414;9.784;2022-12-18T11:50:23;-1.00;99.90
6252;DHT22;3159;52.414;9.784;2022-12-18T11:52:50;-0.90;99.90
6252;DHT22;3159;52.414;9.784;2022-12-18T11:55:26;-1.00;99.90
6252;DHT22;3159;52.414;9.784;2022-12-18T11:58:02;-1.00;99.90
6252;DHT22;3159;52.414;9.784;2022-12-18T12:00:37;-1.00;99.90
6252;DHT22;3159;52.414;9.784;2022-12-18T12:03:21;-1.00;99.90
6252;DHT22;3159;52.414;9.784;2022-12-18T12:06:00;-1.00;99.90
6252;DHT22;3159;52.414;9.784;2022-12-18T12:08:40;-1.00;99.90
6252;DHT22;3159;52.414;9.784;2022-12-18T12:11:18;-0.90;99.90
6252;DHT22;3159;52.414;9.784;2022-12-18T12:13:52;-0.90;99.90
6252;DHT22;3159;52.414;9.784;2022-12-18T12:16:25;-0.90;99.90
6252;DHT22;3159;52.414;9.784;2022-12-18T12:19:06;-0.90;99.90
6252;DHT22;3159;52.414;9.784;2022-12-18T12:21:40;-0.70;99.90
6252;DHT22;3159;52.414;9.784;2022-12-18T12:24:22;-0.80;99.90
6252;DHT22;3159;52.414;9.784;2022-12-18T12:27:00;-0.60;99.90
6252;DHT22;3159;52.414;9.784;2022-12-18T12:29:39;-0.60;99.90
6252;DHT22;3159;52.414;9.784;2022-12-18T12:32:19;-0.70;99.90
6252;DHT22;3159;52.414;9.784;2022-12-18T12:34:59;-0.80;99.90
6252;DHT22;3159;52.414;9.784;2022-12-18T12:37:38;-0.70;99.90
6252;DHT22;3159;52.414;9.784;2022-12-18T12:40:07;-0.70;99.90
6252;DHT22;3159;52.414;9.784;2022-12-18T12:42:42;-0.80;99.90
6252;DHT22;3159;52.414;9.784;2022-12-18T12:45:33;-0.80;99.90
6252;DHT22;3159;52.414;9.784;2022-12-18T12:48:02;-0.70;99.90
6252;DHT22;3159;52.414;9.784;2022-12-18T12:50:32;-0.80;99.90
6252;DHT22;3159;52.414;9.784;2022-12-18T12:53:01;-0.70;99.90
6252;DHT22;3159;52.414;9.784;2022-12-18T12:55:32;-0.70;99.90
6252;DHT22;3159;52.414;9.784;2022-12-18T12:58:11;-0.80;99.90
6252;DHT22;3159;52.414;9.784;2022-12-18T13:00:44;-0.80;99.90
6252;DHT22;3159;52.414;9.784;2022-12-18T13:03:27;-0.80;99.90
6252;DHT22;3159;52.414;9.784;2022-12-18T13:05:59;-0.80;99.90
6252;DHT22;3159;52.414;9.784;2022-12-18T13:08:29;-0.90;99.90
6252;DHT22;3159;52.414;9.784;2022-12-18T13:10:57;-0.90;99.90
6252;DHT22;3159;52.414;9.784;2022-12-18T13:13:50;-0.90;99.90
6252;DHT22;3159;52.414;9.784;2022-12-18T13:16:20;-0.90;99.90
6252;DHT22;3159;52.414;9.784;2022-12-18T13:18:49;-1.00;99.90
6252;DHT22;3159;52.414;9.784;2022-12-18T13:21:21;-1.10;99.90
6252;DHT22;3159;52.414;9.784;2022-12-18T13:23:50;-1.10;99.90
6252;DHT22;3159;52.414;9.784;2022-12-18T13:26:31;-1.20;99.90
6252;DHT22;3159;52.414;9.784;2022-12-18T13:29:00;-1.20;99.90
6252;DHT22;3159;52.414;9.784;2022-12-18T13:34:35;-1.20;99.90
6252;DHT22;3159;52.414;9.784;2022-12-18T13:37:40;-1.20;99.90
6252;DHT22;3159;52.414;9.784;2022-12-18T13:46:18;-1.10;99.90
6252;DHT22;3159;52.414;9.784;2022-12-18T13:48:54;-1.00;99.90
6252;DHT22;3159;52.414;9.784;2022-12-18T13:51:22;-1.20;99.90
6252;DHT22;3159;52.414;9.784;2022-12-18T13:53:51;-1.30;99.90
6252;DHT22;3159;52.414;9.784;2022-12-18T13:56:22;-1.20;99.90
6252;DHT22;3159;52.414;9.784;2022-12-18T13:59:10;-1.40;99.90
6252;DHT22;3159;52.414;9.784;2022-12-18T14:01:47;-1.40;99.90
6252;DHT22;3159;52.414;9.784;2022-12-18T14:04:20;-1.40;99.90
6252;DHT22;3159;52.414;9.784;2022-12-18T14:06:50;-1.50;99.90
6252;DHT22;3159;52.414;9.784;2022-12-18T14:09:20;-1.50;99.90
6252;DHT22;3159;52.414;9.784;2022-12-18T14:11:48;-1.60;99.90
6252;DHT22;3159;52.414;9.784;2022-12-18T14:14:16;-1.70;99.90
6252;DHT22;3159;52.414;9.784;2022-12-18T14:16:46;-1.80;99.90
6252;DHT22;3159;52.414;9.784;2022-12-18T14:19:15;-1.90;99.90
6252;DHT22;3159;52.414;9.784;2022-12-18T14:21:46;-1.80;99.90
6252;DHT22;3159;52.414;9.784;2022-12-18T14:24:15;-1.80;99.90
6252;DHT22;3159;52.414;9.784;2022-12-18T14:26:43;-2.00;99.90
6252;DHT22;3159;52.414;9.784;2022-12-18T14:29:24;-1.90;99.90
6252;DHT22;3159;52.414;9.784;2022-12-18T14:32:10;-2.00;99.90
6252;DHT22;3159;52.414;9.784;2022-12-18T14:34:38;-2.00;99.90
6252;DHT22;3159;52.414;9.784;2022-12-18T14:37:05;-2.00;99.90
6252;DHT22;3159;52.414;9.784;2022-12-18T14:39:32;-2.10;99.90
6252;DHT22;3159;52.414;9.784;2022-12-18T14:41:59;-2.00;99.90
6252;DHT22;3159;52.414;9.784;2022-12-18T14:44:26;-2.10;99.90
6252;DHT22;3159;52.414;9.784;2022-12-18T14:46:52;-2.10;99.90
6252;DHT22;3159;52.414;9.784;2022-12-18T14:49:23;-2.20;99.90
6252;DHT22;3159;52.414;9.784;2022-12-18T14:51:52;-2.10;99.90
6252;DHT22;3159;52.414;9.784;2022-12-18T14:54:21;-2.20;99.90
6252;DHT22;3159;52.414;9.784;2022-12-18T14:56:49;-2.30;99.90
6252;DHT22;3159;52.414;9.784;2022-12-18T14:59:23;-2.30;99.90
6252;DHT22;3159;52.414;9.784;2022-12-18T15:01:58;-2.40;99.90
6252;DHT22;3159;52.414;9.784;2022-12-18T15:04:29;-2.40;99.90
6252;DHT22;3159;52.414;9.784;2022-12-18T15:07:12;-2.40;99.90
6252;DHT22;3159;52.414;9.784;2022-12-18T15:09:41;-2.50;99.90
6252;DHT22;3159;52.414;9.784;2022-12-18T15:12:26;-2.40;99.90
6252;DHT22;3159;52.414;9.784;2022-12-18T15:14:54;-2.50;99.90
6252;DHT22;3159;52.414;9.784;2022-12-18T15:17:22;-2.60;99.90
6252;DHT22;3159;52.414;9.784;2022-12-18T15:19:53;-2.50;99.90
6252;DHT22;3159;52.414;9.784;2022-12-18T15:22:23;-2.40;99.90
6252;DHT22;3159;52.414;9.784;2022-12-18T15:24:51;-2.40;99.90
6252;DHT22;3159;52.414;9.784;2022-12-18T15:27:30;-2.50;99.90
6252;DHT22;3159;52.414;9.784;2022-12-18T15:32:52;-2.50;99.90
6252;DHT22;3159;52.414;9.784;2022-12-18T15:35:40;-2.50;99.90
6252;DHT22;3159;52.414;9.784;2022-12-18T15:38:07;-2.60;99.90
6252;DHT22;3159;52.414;9.784;2022-12-18T15:40:34;-2.50;99.90
6252;DHT22;3159;52.414;9.784;2022-12-18T15:43:01;-2.50;99.90
6252;DHT22;3159;52.414;9.784;2022-12-18T15:45:45;-2.60;99.90
6252;DHT22;3159;52.414;9.784;2022-12-18T15:48:19;-2.60;99.90
6252;DHT22;3159;52.414;9.784;2022-12-18T15:50:48;-2.50;99.90
6252;DHT22;3159;52.414;9.784;2022-12-18T15:53:15;-2.50;99.90
6252;DHT22;3159;52.414;9.784;2022-12-18T15:55:42;-2.60;99.90
6252;DHT22;3159;52.414;9.784;2022-12-18T15:58:26;-2.50;99.90
6252;DHT22;3159;52.414;9.784;2022-12-18T16:00:54;-2.60;99.90
6252;DHT22;3159;52.414;9.784;2022-12-18T16:03:22;-2.60;99.90
6252;DHT22;3159;52.414;9.784;2022-12-18T16:05:50;-2.60;99.90
6252;DHT22;3159;52.414;9.784;2022-12-18T16:08:17;-2.50;99.90
6252;DHT22;3159;52.414;9.784;2022-12-18T16:10:44;-2.50;99.90
6252;DHT22;3159;52.414;9.784;2022-12-18T16:13:11;-2.50;99.90
6252;DHT22;3159;52.414;9.784;2022-12-18T16:15:38;-2.60;99.90
6252;DHT22;3159;52.414;9.784;2022-12-18T16:18:05;-2.60;99.90
6252;DHT22;3159;52.414;9.784;2022-12-18T16:20:32;-2.60;99.90
6252;DHT22;3159;52.414;9.784;2022-12-18T16:23:00;-2.60;99.90
6252;DHT22;3159;52.414;9.784;2022-12-18T16:25:28;-2.60;99.90
6252;DHT22;3159;52.414;9.784;2022-12-18T16:27:55;-2.70;99.90
6252;DHT22;3159;52.414;9.784;2022-12-18T16:30:24;-2.70;99.90
6252;DHT22;3159;52.414;9.784;2022-12-18T16:32:53;-2.70;99.90
6252;DHT22;3159;52.414;9.784;2022-12-18T16:35:20;-2.50;99.90